| time (UTC) | temp F | wind direction | speed MPH | gust MPH | rain 1hr in | rain 24hr in | rain mn in | humidity % | barometer mb |
| 20260905224553 | 79 | 238 | 6.0 | 12.0 | 0.00 | 0.00 | 0.00 | 66 | 1012.7 |
| 20260905223057 | 80 | 234 | 7.0 | 12.0 | 0.00 | 0.00 | 0.00 | 64 | 1012.8 |
| 20260905221601 | 80 | 300 | 6.0 | 14.0 | 0.00 | 0.00 | 0.00 | 62 | 1012.9 |
| 20260905214605 | 80 | 360 | 6.0 | 12.0 | 0.00 | 0.00 | 0.00 | 54 | 1013.2 |
| 20260905213101 | 80 | 360 | 6.0 | 11.0 | 0.00 | 0.00 | 0.00 | 62 | 1013.3 |
| 20260905211556 | 79 | 270 | 7.0 | 12.0 | 0.00 | 0.00 | 0.00 | 66 | 1013.5 |
| 20260905210105 | 79 | 360 | 5.0 | 11.0 | 0.00 | 0.00 | 0.00 | 62 | 1013.5 |
| 20260905204555 | 80 | 248 | 5.0 | 11.0 | 0.00 | 0.00 | 0.00 | 65 | 1013.8 |
| 20260905203111 | 78 | 250 | 7.0 | 11.0 | 0.00 | 0.00 | 0.00 | 67 | 1013.9 |
| 20260905201557 | 77 | 248 | 5.0 | 10.0 | 0.00 | 0.00 | 0.00 | 69 | 1014.0 |
| 20260905194603 | 76 | 360 | 5.0 | 11.0 | 0.00 | 0.00 | 0.00 | 69 | 1014.1 |
| 20260905193102 | 76 | 261 | 5.0 | 10.0 | 0.00 | 0.00 | 0.00 | 69 | 1014.3 |
| 20260905191555 | 76 | 265 | 4.0 | 10.0 | 0.00 | 0.00 | 0.00 | 69 | 1014.5 |
| 20260905190103 | 76 | 248 | 6.0 | 9.0 | 0.00 | 0.00 | 0.00 | 67 | 1014.5 |
| 20260905184606 | 76 | 257 | 4.0 | 10.0 | 0.00 | 0.00 | 0.00 | 67 | 1014.6 |
| 20260905183107 | 76 | 360 | 4.0 | 10.0 | 0.00 | 0.00 | 0.00 | 67 | 1014.9 |
| 20260905181555 | 74 | 250 | 6.0 | 12.0 | 0.00 | 0.00 | 0.00 | 70 | 1014.9 |
| 20260905180100 | 74 | 240 | 5.0 | 8.0 | 0.00 | 0.00 | 0.00 | 68 | 1014.9 |
| 20260905174606 | 75 | 254 | 3.0 | 8.0 | 0.00 | 0.00 | 0.00 | 65 | 1014.7 |
| 20260905173102 | 74 | 290 | 4.0 | 7.0 | 0.00 | 0.00 | 0.00 | 64 | 1014.5 |
| 20260905171635 | 76 | 248 | 2.0 | 5.0 | 0.00 | 0.00 | 0.00 | 60 | 1014.5 |
| 20260905170105 | 75 | 254 | 1.0 | 6.0 | 0.00 | 0.00 | 0.00 | 60 | 1014.4 |
| 20260905164556 | 77 | 253 | 1.0 | 4.0 | 0.00 | 0.00 | 0.00 | 58 | 1014.4 |
| 20260905163056 | 76 | 263 | 2.0 | 5.0 | 0.00 | 0.00 | 0.00 | 61 | 1014.3 |
| 20260905161558 | 76 | 236 | 1.0 | 4.0 | 0.00 | 0.00 | 0.00 | 59 | 1014.3 |
| 20260905160107 | 79 | 112 | 2.0 | 9.0 | 0.00 | 0.00 | 0.00 | 56 | 1014.3 |
| 20260905154620 | 76 | 87 | 1.0 | 4.0 | 0.00 | 0.00 | 0.00 | 65 | 1014.3 |
| 20260905153053 | 71 | 51 | 0.0 | 3.0 | 0.00 | 0.00 | 0.00 | 68 | 1014.2 |
| 20260905151601 | 74 | 55 | 1.0 | 3.0 | 0.00 | 0.00 | 0.00 | 65 | 1014.2 |
| 20260905150105 | 72 | 55 | 1.0 | 4.0 | 0.00 | 0.00 | 0.00 | 67 | 1014.0 |
| 20260905144556 | 73 | 0 | 0.0 | 2.0 | 0.00 | 0.00 | 0.00 | 66 | 1014.0 |
| 20260905143102 | 71 | 5 | 1.0 | 3.0 | 0.00 | 0.00 | 0.00 | 72 | 1013.9 |
| 20260905141557 | 69 | 5 | 0.0 | 2.0 | 0.00 | 0.00 | 0.00 | 78 | 1013.5 |
| 20260905140057 | 66 | 0 | 0.0 | 3.0 | 0.00 | 0.00 | 0.00 | 84 | 1013.5 |
| 20260905134602 | 62 | 5 | 1.0 | 4.0 | 0.00 | 0.00 | 0.00 | 86 | 1013.2 |
| 20260905133056 | 61 | 9 | 1.0 | 4.0 | 0.00 | 0.00 | 0.00 | 86 | 1012.9 |
| 20260905131555 | 61 | 352 | 1.0 | 4.0 | 0.00 | 0.00 | 0.00 | 86 | 1012.9 |
| 20260905130101 | 61 | 348 | 1.0 | 4.0 | 0.00 | 0.00 | 0.00 | 86 | 1013.0 |
| 20260905124558 | 61 | 360 | 1.0 | 3.0 | 0.00 | 0.00 | 0.00 | 86 | 1013.1 |
| 20260905123056 | 62 | 5 | 1.0 | 4.0 | 0.00 | 0.00 | 0.00 | 86 | 1013.1 |
| 20260905121600 | 62 | 15 | 2.0 | 4.0 | 0.00 | 0.00 | 0.00 | 86 | 1013.1 |
| 20260905120059 | 62 | 12 | 1.0 | 3.0 | 0.00 | 0.00 | 0.00 | 86 | 1013.1 |
| 20260905114607 | 62 | 0 | 2.0 | 4.0 | 0.00 | 0.00 | 0.00 | 86 | 1013.0 |
| 20260905113054 | 62 | 5 | 0.0 | 3.0 | 0.00 | 0.00 | 0.00 | 86 | 1013.1 |
| 20260905111622 | 62 | 0 | 0.0 | 3.0 | 0.00 | 0.00 | 0.00 | 86 | 1013.2 |
| 20260905110106 | 62 | 360 | 1.0 | 3.0 | 0.00 | 0.00 | 0.00 | 86 | 1013.3 |
| 20260905104619 | 62 | 343 | 0.0 | 4.0 | 0.00 | 0.00 | 0.00 | 86 | 1013.3 |
| 20260905103056 | 62 | 338 | 0.0 | 2.0 | 0.00 | 0.00 | 0.00 | 86 | 1013.3 |
| 20260905101554 | 63 | 338 | 1.0 | 3.0 | 0.00 | 0.00 | 0.00 | 86 | 1013.3 |
| 20260905100056 | 63 | 323 | 1.0 | 3.0 | 0.00 | 0.00 | 0.00 | 86 | 1013.4 |
| 20260905094715 | 63 | 0 | 0.0 | 2.0 | 0.00 | 0.00 | 0.00 | 86 | 1013.4 |
| 20260905093126 | 63 | 0 | 1.0 | 2.0 | 0.00 | 0.00 | 0.00 | 86 | 1013.4 |
| 20260905091602 | 63 | 284 | 1.0 | 2.0 | 0.00 | 0.00 | 0.00 | 86 | 1013.5 |
| 20260905090052 | 63 | 0 | 0.0 | 2.0 | 0.00 | 0.00 | 0.00 | 86 | 1013.5 |
| 20260905084605 | 64 | 284 | 1.0 | 3.0 | 0.00 | 0.00 | 0.00 | 86 | 1013.6 |
| 20260905083056 | 64 | 283 | 0.0 | 3.0 | 0.00 | 0.00 | 0.00 | 85 | 1013.8 |
| 20260905081557 | 64 | 259 | 1.0 | 2.0 | 0.00 | 0.00 | 0.00 | 86 | 1014.0 |
| 20260905080107 | 64 | 259 | 0.0 | 1.0 | 0.00 | 0.00 | 0.00 | 86 | 1014.3 |
| 20260905074602 | 64 | 259 | 1.0 | 2.0 | 0.00 | 0.00 | 0.00 | 85 | 1014.2 |
| 20260905073110 | 65 | 0 | 0.0 | 2.0 | 0.00 | 0.00 | 0.00 | 85 | 1014.1 |
| 20260905071556 | 65 | 0 | 0.0 | 0.0 | 0.00 | 0.00 | 0.00 | 85 | 1014.3 |
| 20260905070057 | 65 | 0 | 0.0 | 1.0 | 0.00 | 0.00 | 0.00 | 85 | 1014.3 |
| 20260905064553 | 65 | 0 | 0.0 | 0.0 | 0.00 | 0.00 | 0.00 | 85 | 1014.3 |
| 20260905063058 | 65 | 0 | 0.0 | 0.0 | 0.00 | 0.00 | 0.00 | 85 | 1014.4 |
| 20260905061605 | 65 | 0 | 0.0 | 0.0 | 0.00 | 0.00 | 0.00 | 84 | 1014.2 |
| 20260905060107 | 65 | 0 | 0.0 | 1.0 | 0.00 | 0.00 | 0.00 | 84 | 1014.1 |
| 20260905054607 | 65 | 0 | 0.0 | 0.0 | 0.00 | 0.00 | 0.00 | 84 | 1014.1 |
| 20260905053101 | 65 | 0 | 0.0 | 0.0 | 0.00 | 0.00 | 0.00 | 84 | 1014.1 |
| 20260905051610 | 65 | 0 | 0.0 | 0.0 | 0.00 | 0.00 | 0.00 | 83 | 1014.0 |
| 20260905050107 | 66 | 254 | 0.0 | 2.0 | 0.00 | 0.00 | 0.00 | 83 | 1014.2 |
| 20260905044604 | 66 | 0 | 0.0 | 1.0 | 0.00 | 0.00 | 0.00 | 83 | 1014.1 |
| 20260905043059 | 66 | 0 | 0.0 | 0.0 | 0.00 | 0.00 | 0.00 | 83 | 1013.9 |
| 20260905041610 | 66 | 0 | 0.0 | 0.0 | 0.00 | 0.00 | 0.00 | 82 | 1013.6 |
| 20260905040108 | 66 | 0 | 0.0 | 2.0 | 0.00 | 0.00 | 0.00 | 82 | 1013.6 |
| 20260905034606 | 66 | 0 | 0.0 | 2.0 | 0.00 | 0.00 | 0.00 | 81 | 1013.5 |
| 20260905033106 | 67 | 0 | 1.0 | 3.0 | 0.00 | 0.00 | 0.00 | 81 | 1013.3 |
| 20260905031554 | 67 | 253 | 1.0 | 4.0 | 0.00 | 0.00 | 0.00 | 80 | 1013.2 |
| 20260905030111 | 68 | 262 | 1.0 | 4.0 | 0.00 | 0.00 | 0.00 | 80 | 1013.0 |
| 20260905024606 | 68 | 255 | 2.0 | 4.0 | 0.00 | 0.00 | 0.00 | 79 | 1012.9 |
| 20260905023058 | 68 | 261 | 2.0 | 5.0 | 0.00 | 0.00 | 0.00 | 78 | 1012.9 |
| 20260905021603 | 69 | 259 | 2.0 | 5.0 | 0.00 | 0.00 | 0.00 | 77 | 1013.0 |
| 20260905020059 | 69 | 250 | 2.0 | 4.0 | 0.00 | 0.00 | 0.00 | 76 | 1013.0 |
| 20260905014557 | 70 | 274 | 3.0 | 7.0 | 0.00 | 0.00 | 0.00 | 75 | 1012.7 |
| 20260905013116 | 71 | 360 | 3.0 | 8.0 | 0.00 | 0.00 | 0.00 | 72 | 1012.7 |
| 20260905011606 | 72 | 0 | 3.0 | 9.0 | 0.00 | 0.00 | 0.00 | 71 | 1012.8 |
| 20260905010106 | 75 | 247 | 3.0 | 9.0 | 0.00 | 0.00 | 0.00 | 69 | 1012.7 |
| 20260905004600 | 74 | 248 | 2.0 | 8.0 | 0.00 | 0.00 | 0.00 | 69 | 1013.0 |
| 20260905003101 | 74 | 229 | 4.0 | 9.0 | 0.00 | 0.00 | 0.00 | 69 | 1013.1 |
| 20260905001553 | 73 | 269 | 6.0 | 10.0 | 0.00 | 0.00 | 0.00 | 70 | 1013.1 |
| 20260905000059 | 75 | 250 | 4.0 | 11.0 | 0.00 | 0.00 | 0.00 | 69 | 1013.0 |
| 20260904234555 | 75 | 252 | 4.0 | 10.0 | 0.00 | 0.00 | 0.00 | 68 | 1013.1 |
| 20260904233055 | 75 | 251 | 5.0 | 9.0 | 0.00 | 0.00 | 0.00 | 69 | 1013.1 |
| 20260904231552 | 76 | 360 | 3.0 | 10.0 | 0.00 | 0.00 | 0.00 | 68 | 1013.1 |
| 20260904230108 | 75 | 224 | 5.0 | 13.0 | 0.00 | 0.00 | 0.00 | 68 | 1013.3 |
| 20260904224615 | 76 | 273 | 3.0 | 11.0 | 0.00 | 0.00 | 0.00 | 68 | 1013.3 |